Time;durP1;ratioP1;P1;durP2;ratioP2;P2;SDS_P1;SDS_P2;PMS_P1;PMS_P2;Temp;Humidity;BMP_temperature;BMP_pressure;BME280_temperature;BME280_humidity;BME280_pressure;Samples;Min_cycle;Max_cycle;Signal;HPM_P1;HPM_P2
2022/03/11 00:00:38;;;;;;;9.55;6.60;;;;;;;8.48;45.88;99940.03;5031771;28;20032;-87
2022/03/11 00:03:03;;;;;;;10.23;7.28;;;;;;;8.48;46.35;99935.56;5047747;28;20035;-87
2022/03/11 00:05:28;;;;;;;10.30;6.65;;;;;;;8.47;46.32;99923.22;5031577;28;20036;-87
2022/03/11 00:07:55;;;;;;;10.63;7.13;;;;;;;8.49;46.04;99936.41;5030774;28;20036;-87
2022/03/11 00:10:21;;;;;;;10.05;7.18;;;;;;;8.48;46.06;99932.91;5031542;28;20440;-87
2022/03/11 00:12:46;;;;;;;10.65;7.07;;;;;;;8.51;46.59;99926.47;5031102;28;20051;-87
2022/03/11 00:15:11;;;;;;;9.60;7.00;;;;;;;8.50;46.23;99919.44;5031026;28;20070;-88
2022/03/11 00:17:37;;;;;;;10.10;7.32;;;;;;;8.50;46.03;99927.44;5030255;28;20032;-87
2022/03/11 00:20:03;;;;;;;9.73;7.65;;;;;;;8.48;46.27;99924.91;5048072;28;20069;-87
2022/03/11 00:22:28;;;;;;;10.23;7.25;;;;;;;8.48;46.50;99930.22;5029047;28;20074;-87
2022/03/11 00:24:54;;;;;;;10.02;7.00;;;;;;;8.52;46.42;99923.72;5029664;28;20029;-87
2022/03/11 00:27:19;;;;;;;9.70;7.00;;;;;;;8.51;46.09;99930.00;5040609;28;20039;-87
2022/03/11 00:29:44;;;;;;;10.52;7.20;;;;;;;8.51;45.83;99930.00;5047528;28;20044;-87
2022/03/11 00:32:09;;;;;;;9.68;6.90;;;;;;;8.50;46.12;99922.97;5047495;28;20042;-87
2022/03/11 00:34:35;;;;;;;8.82;6.78;;;;;;;8.49;45.57;99921.25;5030697;28;20028;-88
2022/03/11 00:37:00;;;;;;;8.90;6.57;;;;;;;8.52;46.26;99922.88;5030010;28;20033;-88
2022/03/11 00:39:26;;;;;;;9.60;7.38;;;;;;;8.52;46.23;99917.53;5030958;28;20506;-87
2022/03/11 00:41:51;;;;;;;9.57;7.10;;;;;;;8.49;46.24;99921.25;5029549;28;20037;-87
2022/03/11 00:44:17;;;;;;;9.82;7.53;;;;;;;8.46;46.02;99912.69;5047713;28;20024;-87
2022/03/11 00:46:42;;;;;;;9.00;6.95;;;;;;;8.43;46.01;99926.25;5046546;28;20033;-86
2022/03/11 00:49:08;;;;;;;12.32;7.72;;;;;;;8.36;46.39;99917.91;5030045;28;20032;-87
2022/03/11 00:51:34;;;;;;;9.05;6.93;;;;;;;8.29;46.37;99919.34;5030334;28;20105;-87
2022/03/11 00:53:59;;;;;;;12.38;7.20;;;;;;;8.25;46.39;99919.72;5023431;28;20482;-87
2022/03/11 00:56:27;;;;;;;10.13;6.70;;;;;;;8.25;46.59;99917.91;5031044;28;20882;-87
2022/03/11 00:58:52;;;;;;;12.30;7.05;;;;;;;8.19;46.53;99916.59;5046189;28;20060;-87
2022/03/11 01:01:18;;;;;;;9.50;6.85;;;;;;;8.17;46.72;99907.03;5031667;28;20076;-87
2022/03/11 01:03:44;;;;;;;9.02;6.07;;;;;;;8.12;47.48;99910.06;5029803;28;20075;-87
2022/03/11 01:06:09;;;;;;;10.25;7.22;;;;;;;8.10;47.58;99906.69;5030499;28;20031;-87
2022/03/11 01:08:34;;;;;;;15.68;6.93;;;;;;;8.14;47.40;99900.13;5029182;28;20047;-87
2022/03/11 01:11:00;;;;;;;9.90;6.97;;;;;;;8.17;47.09;99905.22;5030154;28;20170;-87
2022/03/11 01:13:25;;;;;;;8.85;6.93;;;;;;;8.18;46.71;99896.25;5030427;28;20075;-87
2022/03/11 01:15:51;;;;;;;8.82;6.80;;;;;;;8.25;46.65;99891.28;5030014;28;20036;-87
2022/03/11 01:18:16;;;;;;;9.63;6.90;;;;;;;8.27;46.64;99881.34;5029377;28;20112;-87
2022/03/11 01:20:41;;;;;;;11.77;7.03;;;;;;;8.27;46.24;99877.84;5047127;28;20039;-87
2022/03/11 01:23:07;;;;;;;10.68;7.00;;;;;;;8.27;45.62;99886.66;5030212;28;20028;-87
2022/03/11 01:25:32;;;;;;;9.70;7.07;;;;;;;8.26;45.36;99876.97;5030468;28;20024;-87
2022/03/11 01:27:58;;;;;;;13.18;7.15;;;;;;;8.26;45.27;99882.31;5029510;28;20032;-86
2022/03/11 01:30:23;;;;;;;10.20;7.28;;;;;;;8.24;45.33;99873.59;5030849;28;20074;-87
2022/03/11 01:32:48;;;;;;;10.63;6.78;;;;;;;8.25;45.25;99869.97;5029005;28;20040;-87
2022/03/11 01:35:14;;;;;;;9.75;6.63;;;;;;;8.24;45.21;99867.44;5031932;28;20086;-87
2022/03/11 01:37:39;;;;;;;9.32;6.80;;;;;;;8.20;45.41;99870.34;5034039;28;20043;-87
2022/03/11 01:40:06;;;;;;;9.73;6.28;;;;;;;8.21;45.43;99868.53;5051319;28;20026;-87
2022/03/11 01:42:36;;;;;;;10.35;7.07;;;;;;;8.21;44.97;99876.50;5034105;28;20046;-87
2022/03/11 01:45:03;;;;;;;9.90;7.07;;;;;;;8.16;45.55;99871.56;5034842;28;20028;-87
2022/03/11 01:47:28;;;;;;;10.10;6.82;;;;;;;8.14;45.20;99860.19;5033700;28;20032;-87
2022/03/11 01:49:54;;;;;;;9.20;6.68;;;;;;;8.12;44.94;99855.97;5049224;28;20036;-87
2022/03/11 01:52:19;;;;;;;9.40;6.68;;;;;;;8.06;44.90;99853.81;5034176;28;20112;-87
2022/03/11 01:54:45;;;;;;;8.85;6.60;;;;;;;8.05;45.24;99849.44;5049723;28;20510;-87
2022/03/11 01:57:12;;;;;;;9.15;6.18;;;;;;;8.01;45.14;99847.97;5033769;28;20036;-87
2022/03/11 01:59:37;;;;;;;9.15;6.30;;;;;;;7.99;44.67;99853.41;5033063;28;20131;-87
2022/03/11 02:02:07;;;;;;;9.32;6.55;;;;;;;8.02;44.80;99847.00;5032252;28;20401;-87
2022/03/11 02:04:32;;;;;;;7.85;6.13;;;;;;;8.00;44.41;99838.28;5033271;28;20035;-87
2022/03/11 02:06:58;;;;;;;7.38;6.05;;;;;;;7.99;44.66;99832.13;5050092;28;20025;-87
2022/03/11 02:09:23;;;;;;;9.15;6.10;;;;;;;8.00;44.61;99830.31;5033627;28;20415;-87
2022/03/11 02:11:49;;;;;;;9.30;6.15;;;;;;;7.98;44.63;99827.75;5033095;28;20038;-87
2022/03/11 02:14:14;;;;;;;8.50;6.20;;;;;;;7.99;44.73;99826.78;5033028;28;20029;-87
2022/03/11 02:16:40;;;;;;;8.80;6.38;;;;;;;7.99;44.28;99824.13;5033986;28;20539;-87
2022/03/11 02:19:06;;;;;;;9.50;6.63;;;;;;;8.00;44.78;99822.31;5032508;28;20032;-87
2022/03/11 02:21:41;;;;;;;9.43;6.28;;;;;;;7.99;44.31;99810.81;5050683;28;20036;-87
2022/03/11 02:24:09;;;;;;;8.57;6.30;;;;;;;7.98;44.40;99816.28;5032569;28;20660;-87
2022/03/11 02:26:35;;;;;;;8.85;5.97;;;;;;;8.02;45.10;99812.38;5033190;28;20052;-87
2022/03/11 02:29:01;;;;;;;8.38;5.85;;;;;;;8.03;44.62;99814.06;5026107;28;20033;-87
2022/03/11 02:31:28;;;;;;;10.05;6.22;;;;;;;8.07;44.68;99800.41;5040459;28;20136;-87
2022/03/11 02:33:54;;;;;;;8.65;6.22;;;;;;;8.06;44.30;99804.03;5042956;28;20555;-87
2022/03/11 02:36:20;;;;;;;7.85;6.00;;;;;;;8.12;44.63;99810.69;5033585;28;20040;-87
2022/03/11 02:38:45;;;;;;;8.80;5.78;;;;;;;8.15;44.93;99802.44;5033026;28;20554;-87
2022/03/11 02:41:11;;;;;;;8.05;5.88;;;;;;;8.16;44.41;99806.78;5033920;28;20048;-87
2022/03/11 02:43:36;;;;;;;10.02;5.95;;;;;;;8.16;44.79;99804.97;5031719;28;20111;-87
2022/03/11 02:46:02;;;;;;;8.13;5.60;;;;;;;8.18;44.68;99796.88;5033397;28;20013;-87
2022/03/11 02:48:27;;;;;;;8.73;6.00;;;;;;;8.20;45.21;99803.75;5032214;28;20150;-87
2022/03/11 02:50:53;;;;;;;9.43;6.00;;;;;;;8.16;44.33;99804.97;5032930;28;20051;-87
2022/03/11 02:53:19;;;;;;;8.30;5.82;;;;;;;8.18;45.66;99797.72;5033258;28;20025;-87
2022/03/11 02:55:44;;;;;;;7.13;5.55;;;;;;;8.14;44.85;99800.75;5049879;28;20655;-87
2022/03/11 02:58:09;;;;;;;8.13;6.07;;;;;;;8.20;46.35;99792.25;5048781;28;20129;-87
2022/03/11 03:00:35;;;;;;;8.63;6.05;;;;;;;8.17;45.01;99801.34;5033802;28;20036;-87
2022/03/11 03:03:00;;;;;;;7.47;5.22;;;;;;;8.15;44.80;99791.78;5032469;28;20024;-87
2022/03/11 03:05:25;;;;;;;7.30;5.50;;;;;;;8.16;44.63;99796.16;5032805;28;20028;-87
2022/03/11 03:07:51;;;;;;;7.47;5.40;;;;;;;8.13;44.25;99797.25;5032664;28;20031;-87
2022/03/11 03:10:16;;;;;;;6.65;5.25;;;;;;;8.09;43.99;99793.13;5033245;28;20032;-87
2022/03/11 03:12:42;;;;;;;7.00;5.15;;;;;;;8.13;44.63;99799.06;5031347;28;20052;-87
2022/03/11 03:15:08;;;;;;;7.20;5.45;;;;;;;8.16;45.14;99797.00;5032315;28;20481;-87
2022/03/11 03:17:34;;;;;;;7.13;5.32;;;;;;;8.12;44.73;99792.03;5032253;28;20186;-87
2022/03/11 03:19:59;;;;;;;7.53;5.50;;;;;;;8.06;43.80;99796.06;5032582;28;20028;-87
2022/03/11 03:22:25;;;;;;;8.45;6.00;;;;;;;8.03;44.30;99796.28;5032261;28;21133;-87
2022/03/11 03:24:50;;;;;;;8.35;5.15;;;;;;;8.05;44.16;99793.53;5032350;28;20025;-86
2022/03/11 03:27:16;;;;;;;7.78;5.75;;;;;;;8.03;43.93;99785.63;5031671;28;20044;-87
2022/03/11 03:29:41;;;;;;;7.22;5.25;;;;;;;8.00;43.94;99790.38;5032289;28;20210;-86
2022/03/11 03:32:07;;;;;;;8.88;5.55;;;;;;;7.99;43.81;99783.34;5032639;28;20090;-87
2022/03/11 03:34:36;;;;;;;8.40;5.78;;;;;;;8.01;44.03;99784.06;5031626;28;20055;-87
2022/03/11 03:37:03;;;;;;;10.23;5.78;;;;;;;7.97;43.52;99782.63;5032671;28;20478;-87
2022/03/11 03:39:29;;;;;;;10.50;5.78;;;;;;;7.99;44.64;99781.53;5031902;28;20035;-87
2022/03/11 03:41:55;;;;;;;10.15;5.30;;;;;;;7.95;43.93;99776.59;5031757;28;20034;-87
2022/03/11 03:44:21;;;;;;;9.18;5.63;;;;;;;7.95;44.16;99776.59;5031950;28;20096;-87
2022/03/11 03:46:46;;;;;;;7.45;5.35;;;;;;;7.99;45.12;99772.69;5031877;28;20123;-87
2022/03/11 03:49:12;;;;;;;8.63;5.18;;;;;;;7.95;44.23;99769.44;5032662;28;20413;-87
2022/03/11 03:51:40;;;;;;;9.95;5.82;;;;;;;7.89;44.08;99761.97;5031369;28;20028;-87
2022/03/11 03:54:06;;;;;;;7.57;4.97;;;;;;;7.91;44.43;99768.00;5031496;28;20032;-87
2022/03/11 03:56:33;;;;;;;7.53;5.40;;;;;;;7.86;44.41;99760.41;5048290;28;20533;-87
2022/03/11 03:59:00;;;;;;;7.85;5.82;;;;;;;7.80;44.45;99754.72;5030107;28;20056;-86
2022/03/11 04:01:26;;;;;;;7.47;5.13;;;;;;;7.79;43.91;99761.03;5031957;28;20075;-87
2022/03/11 04:03:51;;;;;;;7.95;5.57;;;;;;;7.74;43.75;99763.22;5024206;28;20497;-87
2022/03/11 04:06:16;;;;;;;7.70;5.30;;;;;;;7.73;43.80;99751.72;5049023;28;20021;-86
2022/03/11 04:08:42;;;;;;;7.00;5.18;;;;;;;7.71;43.71;99753.66;5031388;28;20037;-87
2022/03/11 04:11:07;;;;;;;8.18;5.30;;;;;;;7.70;43.95;99754.63;5031799;28;20059;-87
2022/03/11 04:13:32;;;;;;;6.93;5.18;;;;;;;7.66;43.91;99747.88;5030581;28;20494;-87
2022/03/11 04:15:58;;;;;;;8.10;5.18;;;;;;;7.61;44.39;99750.06;5031200;28;20429;-87
2022/03/11 04:18:24;;;;;;;9.13;5.57;;;;;;;7.62;44.50;99746.44;5031356;28;20493;-87
2022/03/11 04:20:49;;;;;;;7.05;5.10;;;;;;;7.58;44.15;99747.66;5031376;28;20126;-87
2022/03/11 04:23:14;;;;;;;8.00;4.93;;;;;;;7.58;43.75;99752.97;5031101;28;20031;-87
2022/03/11 04:25:40;;;;;;;9.73;4.95;;;;;;;7.57;44.08;99741.50;5031619;28;20029;-87
2022/03/11 04:28:05;;;;;;;6.68;5.15;;;;;;;7.56;44.22;99741.59;5031835;28;20108;-87
2022/03/11 04:30:30;;;;;;;7.50;5.40;;;;;;;7.57;44.39;99749.47;5031624;28;20025;-87
2022/03/11 04:32:56;;;;;;;7.80;5.03;;;;;;;7.56;44.39;99745.09;5031603;28;20043;-87
2022/03/11 04:35:21;;;;;;;7.32;5.30;;;;;;;7.55;44.30;99746.06;5031888;28;20115;-87
2022/03/11 04:37:46;;;;;;;8.02;5.03;;;;;;;7.54;44.31;99748.84;5031257;28;20189;-87
2022/03/11 04:40:12;;;;;;;8.43;5.80;;;;;;;7.51;44.58;99744.63;5030821;28;20032;-87
2022/03/11 04:42:37;;;;;;;6.80;5.10;;;;;;;7.49;44.92;99743.03;5030278;28;20111;-87
2022/03/11 04:45:04;;;;;;;7.80;5.43;;;;;;;7.46;44.82;99743.28;5031497;28;20040;-87
2022/03/11 04:47:30;;;;;;;8.07;4.65;;;;;;;7.44;45.55;99745.22;5031401;28;20028;-87
2022/03/11 04:49:56;;;;;;;7.03;5.22;;;;;;;7.40;45.47;99747.28;5030824;28;20497;-87
2022/03/11 04:52:21;;;;;;;8.55;5.28;;;;;;;7.41;45.92;99737.50;5031277;28;20035;-86
2022/03/11 04:54:47;;;;;;;7.38;5.45;;;;;;;7.36;45.65;99747.66;5029398;28;20020;-86
2022/03/11 04:57:12;;;;;;;8.45;5.07;;;;;;;7.36;46.53;99740.53;5031184;28;20042;-88
2022/03/11 04:59:37;;;;;;;8.02;5.65;;;;;;;7.36;45.99;99745.84;5047294;28;20079;-87
2022/03/11 05:02:03;;;;;;;6.55;5.00;;;;;;;7.33;46.32;99735.47;5031614;28;20028;-86
2022/03/11 05:04:28;;;;;;;7.28;5.20;;;;;;;7.32;46.43;99735.59;5030734;28;20021;-87
2022/03/11 05:06:54;;;;;;;8.27;5.60;;;;;;;7.29;46.51;99742.00;5030652;28;20024;-87
2022/03/11 05:09:19;;;;;;;7.63;5.20;;;;;;;7.30;46.68;99742.84;5046914;28;20036;-87
2022/03/11 05:11:44;;;;;;;8.40;5.30;;;;;;;7.31;45.74;99745.38;5034478;28;20032;-87
2022/03/11 05:14:10;;;;;;;7.63;5.47;;;;;;;7.26;46.91;99728.94;5034794;28;20111;-87
2022/03/11 05:16:35;;;;;;;8.38;5.60;;;;;;;7.23;47.36;99734.50;5034760;28;20123;-87
2022/03/11 05:19:00;;;;;;;8.57;5.30;;;;;;;7.19;46.99;99733.06;5039275;28;20043;-87
2022/03/11 05:21:26;;;;;;;8.05;5.22;;;;;;;7.17;47.57;99746.47;5036082;28;20033;-88
2022/03/11 05:23:51;;;;;;;8.15;5.50;;;;;;;7.17;47.89;99740.31;5034245;28;20426;-87
2022/03/11 05:26:25;;;;;;;7.95;5.35;;;;;;;7.09;48.63;99732.91;5035054;28;20028;-87
2022/03/11 05:28:58;;;;;;;7.85;5.60;;;;;;;7.14;48.48;99730.78;5035768;28;20036;-87
2022/03/11 05:31:28;;;;;;;8.50;5.45;;;;;;;7.14;48.27;99729.94;5034147;28;20028;-87
2022/03/11 05:33:54;;;;;;;9.70;5.68;;;;;;;7.19;47.49;99725.94;5033424;28;20016;-87
2022/03/11 05:36:20;;;;;;;9.50;5.80;;;;;;;7.26;47.21;99721.81;5027862;28;20036;-87
2022/03/11 05:38:45;;;;;;;11.35;5.95;;;;;;;7.30;46.67;99725.06;5034501;28;20051;-87
2022/03/11 05:41:10;;;;;;;7.15;5.35;;;;;;;7.34;46.80;99718.53;5051616;28;20109;-87
2022/03/11 05:43:39;;;;;;;9.30;5.60;;;;;;;7.35;46.71;99716.72;5034090;28;20029;-87
2022/03/11 05:46:04;;;;;;;9.93;5.43;;;;;;;7.34;46.49;99712.38;5035358;28;20028;-87
2022/03/11 05:48:30;;;;;;;8.68;5.75;;;;;;;7.39;46.60;99710.19;5033864;28;20060;-87
2022/03/11 05:50:55;;;;;;;8.70;6.05;;;;;;;7.35;46.49;99708.75;5035087;28;20078;-86
2022/03/11 05:53:21;;;;;;;12.38;10.20;;;;;;;7.34;46.23;99710.56;5034034;28;20031;-87
2022/03/11 05:55:46;;;;;;;7.68;5.57;;;;;;;7.33;46.60;99711.53;5034236;28;20474;-87
2022/03/11 05:58:11;;;;;;;8.98;6.28;;;;;;;7.29;46.54;99710.06;5033550;28;20133;-87
2022/03/11 06:00:37;;;;;;;10.05;6.32;;;;;;;7.28;46.26;99712.88;5033464;28;20032;-87
2022/03/11 06:03:02;;;;;;;9.07;5.85;;;;;;;7.23;46.12;99714.06;5033143;28;20044;-87
2022/03/11 06:05:27;;;;;;;8.52;5.80;;;;;;;7.23;46.35;99718.56;5034214;28;20032;-87
2022/03/11 06:07:53;;;;;;;10.63;5.97;;;;;;;7.22;46.75;99717.72;5051077;28;20383;-87
2022/03/11 06:10:18;;;;;;;9.23;6.30;;;;;;;7.21;46.82;99716.00;5035468;28;20496;-87
2022/03/11 06:12:43;;;;;;;8.73;5.63;;;;;;;7.20;46.50;99714.31;5033149;28;20059;-87
2022/03/11 06:15:11;;;;;;;8.40;5.63;;;;;;;7.23;46.93;99727.38;5032781;28;20101;-87
2022/03/11 06:17:37;;;;;;;9.25;5.90;;;;;;;7.24;46.78;99720.25;5025080;28;20744;-87
2022/03/11 06:20:08;;;;;;;9.98;6.00;;;;;;;7.24;46.87;99713.09;5023156;28;20036;-87
2022/03/11 06:22:35;;;;;;;8.40;6.07;;;;;;;7.24;46.75;99717.59;5032531;28;20035;-87
2022/03/11 06:25:00;;;;;;;9.73;6.25;;;;;;;7.24;47.31;99718.44;5034271;28;20016;-87
2022/03/11 06:27:26;;;;;;;7.32;5.38;;;;;;;7.19;46.74;99707.31;5033632;28;20566;-87
2022/03/11 06:29:52;;;;;;;9.45;6.05;;;;;;;7.19;47.39;99709.13;5031736;28;20032;-88
2022/03/11 06:32:17;;;;;;;10.05;6.38;;;;;;;7.20;47.10;99724.13;5026088;28;20028;-88
2022/03/11 06:34:43;;;;;;;8.80;5.75;;;;;;;7.23;47.17;99718.56;5018934;28;20032;-87
2022/03/11 06:37:08;;;;;;;13.60;9.82;;;;;;;7.21;47.65;99724.00;5027309;28;20129;-87
2022/03/11 06:39:33;;;;;;;9.48;6.75;;;;;;;7.18;47.60;99726.91;5039886;28;20082;-87
2022/03/11 06:41:59;;;;;;;10.10;5.90;;;;;;;7.28;47.62;99723.50;5031588;28;20131;-87
2022/03/11 06:44:24;;;;;;;9.07;6.13;;;;;;;7.24;48.00;99723.75;5029928;28;20063;-88
2022/03/11 06:46:49;;;;;;;10.48;5.65;;;;;;;7.22;47.82;99728.34;5030598;28;20105;-87
2022/03/11 06:49:15;;;;;;;10.05;6.32;;;;;;;7.22;47.94;99727.50;5031596;28;20120;-88
2022/03/11 06:51:40;;;;;;;9.25;6.32;;;;;;;7.22;48.38;99727.50;5028225;28;20316;-87
2022/03/11 06:54:07;;;;;;;12.90;7.35;;;;;;;7.20;48.34;99729.44;5025761;28;20075;-88
2022/03/11 06:56:34;;;;;;;9.25;6.32;;;;;;;7.20;47.87;99732.94;5043961;28;20469;-87
2022/03/11 06:58:59;;;;;;;9.70;6.60;;;;;;;7.19;48.44;99727.75;5023899;28;20055;-87
2022/03/11 07:01:24;;;;;;;9.25;6.07;;;;;;;7.22;49.12;99731.00;5032195;28;20024;-88
2022/03/11 07:03:50;;;;;;;9.77;6.10;;;;;;;7.23;49.08;99721.22;5032410;28;20025;-88
2022/03/11 07:06:16;;;;;;;9.27;6.43;;;;;;;7.26;48.88;99721.81;5048225;28;20448;-87
2022/03/11 07:08:41;;;;;;;10.23;6.53;;;;;;;7.29;48.99;99715.41;5031278;28;20028;-88
2022/03/11 07:11:07;;;;;;;8.95;5.82;;;;;;;7.29;49.22;99710.06;5033021;28;20032;-86
2022/03/11 07:13:32;;;;;;;10.40;6.15;;;;;;;7.31;49.04;99707.28;5030934;28;20039;-87
2022/03/11 07:15:58;;;;;;;7.93;5.95;;;;;;;7.33;49.21;99716.84;5027570;28;20039;-87
2022/03/11 07:18:24;;;;;;;9.07;6.38;;;;;;;7.34;49.36;99709.72;5031402;28;20029;-87
2022/03/11 07:20:49;;;;;;;8.98;6.32;;;;;;;7.37;49.64;99715.63;5031627;28;20030;-87
2022/03/11 07:23:15;;;;;;;8.13;6.10;;;;;;;7.39;49.46;99715.50;5032076;28;20043;-87
2022/03/11 07:25:40;;;;;;;9.60;6.57;;;;;;;7.39;49.54;99719.00;5032576;28;20038;-87
2022/03/11 07:28:06;;;;;;;9.52;5.97;;;;;;;7.39;49.63;99715.50;5032653;28;20103;-87
2022/03/11 07:30:31;;;;;;;9.07;6.45;;;;;;;7.37;49.84;99702.31;5031690;28;20033;-87
2022/03/11 07:32:56;;;;;;;9.80;6.88;;;;;;;7.35;49.96;99708.75;5029518;28;20094;-88
2022/03/11 07:35:22;;;;;;;10.10;6.38;;;;;;;7.33;50.52;99697.38;5029789;28;20504;-87
2022/03/11 07:37:47;;;;;;;10.23;6.43;;;;;;;7.36;50.35;99702.44;5032023;28;20028;-87
2022/03/11 07:40:13;;;;;;;9.60;6.25;;;;;;;7.36;50.69;99708.63;5030906;28;20396;-87
2022/03/11 07:42:42;;;;;;;11.65;7.10;;;;;;;7.37;50.37;99697.00;5030635;28;20027;-87
2022/03/11 07:45:10;;;;;;;;;;;;;;;7.41;50.64;99705.59;5031419;28;20024;-88
2022/03/11 07:47:36;;;;;;;11.90;6.65;;;;;;;7.46;50.57;99706.06;5047714;28;20916;-87
2022/03/11 07:50:02;;;;;;;12.18;6.97;;;;;;;7.48;50.22;99706.78;5030803;28;20044;-88
2022/03/11 07:52:27;;;;;;;14.48;6.72;;;;;;;7.48;50.75;99715.59;5031805;28;20028;-87
2022/03/11 07:54:52;;;;;;;11.38;6.75;;;;;;;7.48;50.77;99706.78;5047415;28;20036;-87
2022/03/11 07:57:18;;;;;;;12.88;6.72;;;;;;;7.49;51.25;99711.97;5031643;28;20499;-87
2022/03/11 07:59:43;;;;;;;10.55;6.72;;;;;;;7.53;51.23;99713.41;5047883;28;20071;-88
2022/03/11 08:02:09;;;;;;;12.57;6.85;;;;;;;7.55;51.39;99710.63;5029418;28;20028;-87
2022/03/11 08:04:34;;;;;;;16.40;7.72;;;;;;;7.57;51.83;99706.06;5030233;28;20493;-88
2022/03/11 08:07:06;;;;;;;10.32;6.47;;;;;;;7.60;51.65;99703.13;5046116;28;20115;-87
2022/03/11 08:09:33;;;;;;;9.30;6.50;;;;;;;7.61;51.49;99704.81;5052827;28;20151;-88
2022/03/11 08:11:58;;;;;;;11.00;6.53;;;;;;;7.63;52.43;99696.72;5029948;28;20037;-88
2022/03/11 08:14:24;;;;;;;13.10;7.32;;;;;;;7.66;52.32;99688.47;5031608;28;21071;-87
2022/03/11 08:16:49;;;;;;;10.63;7.00;;;;;;;7.70;52.31;99687.25;5030246;28;20147;-87
2022/03/11 08:19:14;;;;;;;8.77;6.47;;;;;;;7.73;52.47;99687.00;5031051;28;20482;-87
2022/03/11 08:21:40;;;;;;;11.68;6.78;;;;;;;7.76;52.96;99682.28;5032278;28;20589;-88
2022/03/11 08:24:06;;;;;;;10.90;7.00;;;;;;;7.79;52.94;99686.50;5030230;28;20040;-87
2022/03/11 08:26:31;;;;;;;10.02;6.57;;;;;;;7.81;53.06;99682.72;5028293;28;20108;-87
2022/03/11 08:28:58;;;;;;;12.13;6.68;;;;;;;7.86;53.10;99679.69;5046491;28;20119;-87
2022/03/11 08:31:23;;;;;;;11.70;6.25;;;;;;;7.99;54.09;99684.81;5031203;28;20048;-88
2022/03/11 08:33:49;;;;;;;10.57;6.63;;;;;;;8.07;53.71;99682.41;5046959;28;20123;-88
2022/03/11 08:36:14;;;;;;;11.00;6.18;;;;;;;8.08;54.85;99684.09;5030557;28;20117;-88
2022/03/11 08:38:40;;;;;;;9.70;6.45;;;;;;;8.13;55.20;99684.53;5028822;28;20085;-87
2022/03/11 08:41:07;;;;;;;10.15;6.40;;;;;;;8.19;55.08;99684.03;5029666;28;20401;-87
2022/03/11 08:43:33;;;;;;;7.47;5.75;;;;;;;8.19;55.20;99684.03;5047725;28;20604;-88
2022/03/11 08:45:58;;;;;;;8.45;6.07;;;;;;;8.23;55.67;99679.28;5029757;28;20059;-87
2022/03/11 08:48:24;;;;;;;10.90;6.32;;;;;;;8.27;55.68;99678.03;5031365;28;20126;-87
2022/03/11 08:50:49;;;;;;;8.40;5.82;;;;;;;8.36;57.05;99674.63;5030851;28;20024;-87
2022/03/11 08:53:15;;;;;;;10.82;6.15;;;;;;;8.35;57.42;99675.59;5031387;28;20060;-87
2022/03/11 08:55:40;;;;;;;8.13;5.78;;;;;;;8.36;57.15;99674.63;5031173;28;20086;-87
2022/03/11 08:58:06;;;;;;;8.77;6.13;;;;;;;8.36;57.53;99672.81;5031124;28;20582;-87
2022/03/11 09:00:31;;;;;;;9.52;6.32;;;;;;;8.40;56.65;99676.06;5033839;28;20051;-87
2022/03/11 09:02:56;;;;;;;9.88;6.90;;;;;;;8.49;56.35;99678.75;5032983;28;20029;-87
2022/03/11 09:05:22;;;;;;;8.80;6.25;;;;;;;8.48;56.56;99682.41;5030726;28;20111;-88
2022/03/11 09:08:34;;;;;;;8.82;5.97;;;;;;;8.47;57.59;99679.88;5031552;28;20089;-87
2022/03/11 09:10:59;;;;;;;9.45;5.78;;;;;;;8.51;58.61;99681.31;5055846;28;20040;-87
2022/03/11 09:13:25;;;;;;;10.07;6.13;;;;;;;8.54;58.05;99685.56;5031205;28;20048;-87
2022/03/11 09:15:50;;;;;;;10.27;6.55;;;;;;;8.59;57.09;99683.34;5030067;28;20123;-89
2022/03/11 09:18:15;;;;;;;10.30;6.30;;;;;;;8.59;59.20;99681.50;5047685;28;20032;-87
2022/03/11 09:20:41;;;;;;;9.57;5.75;;;;;;;8.62;59.99;99683.91;5030187;28;20389;-88
2022/03/11 09:23:06;;;;;;;9.70;6.90;;;;;;;8.61;59.04;99673.38;5031405;28;20498;-87
2022/03/11 09:25:32;;;;;;;8.45;5.78;;;;;;;8.59;59.08;99670.00;5030665;28;20090;-87
2022/03/11 09:27:57;;;;;;;8.45;5.63;;;;;;;8.65;59.46;99661.47;5029910;28;20060;-87
2022/03/11 09:30:23;;;;;;;7.38;5.50;;;;;;;8.63;59.68;99658.09;5030757;28;20111;-86
2022/03/11 09:32:48;;;;;;;10.20;6.03;;;;;;;8.65;59.30;99654.31;5030001;28;20047;-87
2022/03/11 09:35:15;;;;;;;8.20;6.03;;;;;;;8.63;59.87;99655.44;5030662;28;20478;-87
2022/03/11 09:37:40;;;;;;;12.40;6.35;;;;;;;8.69;59.98;99654.91;5030031;28;20047;-87
2022/03/11 09:40:07;;;;;;;9.02;5.60;;;;;;;8.69;60.16;99655.75;5030846;28;20477;-86
2022/03/11 09:42:33;;;;;;;10.70;6.80;;;;;;;8.76;59.61;99646.22;5022264;28;20103;-88
2022/03/11 09:44:58;;;;;;;10.93;6.20;;;;;;;8.80;60.13;99652.13;5045232;28;20061;-87
2022/03/11 09:47:24;;;;;;;7.95;5.60;;;;;;;8.73;61.17;99653.66;5046071;28;20035;-86
2022/03/11 09:49:50;;;;;;;8.15;6.07;;;;;;;8.77;60.93;99652.41;5028820;28;20094;-86
2022/03/11 09:52:17;;;;;;;10.43;6.20;;;;;;;8.73;61.24;99643.00;5031422;28;20037;-86
2022/03/11 09:54:45;;;;;;;9.23;5.97;;;;;;;8.73;62.40;99648.31;5047276;28;20115;-87
2022/03/11 09:57:10;;;;;;;9.63;6.93;;;;;;;8.85;62.07;99639.25;5032870;28;20032;-86
2022/03/11 09:59:36;;;;;;;8.07;5.82;;;;;;;8.84;61.24;99637.56;5033013;28;20044;-87
2022/03/11 10:02:01;;;;;;;10.27;6.50;;;;;;;8.86;61.43;99635.59;5033403;28;20048;-89
2022/03/11 10:04:26;;;;;;;8.98;5.60;;;;;;;8.86;62.32;99627.59;5033950;28;20042;-87
2022/03/11 10:06:52;;;;;;;8.43;6.15;;;;;;;8.84;62.25;99624.22;5033046;28;20056;-89
2022/03/11 10:09:17;;;;;;;7.70;6.00;;;;;;;8.92;62.01;99627.06;5051320;28;20071;-87
2022/03/11 10:11:43;;;;;;;9.05;6.30;;;;;;;8.99;62.19;99622.91;5050882;28;20486;-89
2022/03/11 10:14:08;;;;;;;8.50;6.05;;;;;;;8.93;62.89;99617.22;5034249;28;20028;-87
2022/03/11 10:16:34;;;;;;;9.13;6.60;;;;;;;8.98;62.60;99609.66;5033632;28;20931;-86
2022/03/11 10:19:04;;;;;;;9.88;5.95;;;;;;;8.97;63.31;99611.50;5034665;28;20078;-86
2022/03/11 10:21:40;;;;;;;10.63;6.38;;;;;;;8.99;63.58;99614.91;5031692;28;20028;-87
2022/03/11 10:24:07;;;;;;;7.72;6.10;;;;;;;8.95;63.36;99602.78;5026315;28;20025;-87
2022/03/11 10:26:41;;;;;;;9.55;6.43;;;;;;;8.94;63.63;99597.59;5033127;28;20430;-87
2022/03/11 10:29:09;;;;;;;7.78;5.88;;;;;;;8.97;63.81;99587.50;5034012;28;20443;-88
2022/03/11 10:31:39;;;;;;;8.18;6.07;;;;;;;9.04;65.02;99596.66;5033393;28;20111;-88
2022/03/11 10:34:27;;;;;;;10.77;7.10;;;;;;;9.09;63.91;99581.09;5026344;28;20036;-90
2022/03/11 10:37:06;;;;;;;9.32;6.55;;;;;;;9.13;64.18;99577.16;5058299;28;20457;-89
2022/03/11 10:39:40;;;;;;;9.30;6.82;;;;;;;9.13;65.71;99576.31;5067605;28;20032;-89
2022/03/11 10:42:28;;;;;;;10.82;6.53;;;;;;;9.17;66.02;99580.41;5032777;28;20024;-88
2022/03/11 10:44:53;;;;;;;10.47;6.70;;;;;;;9.14;65.38;99580.66;5032953;28;20029;-86
2022/03/11 10:47:19;;;;;;;10.77;6.63;;;;;;;9.18;64.99;99573.22;5049806;28;20266;-86
2022/03/11 10:49:49;;;;;;;8.15;6.43;;;;;;;9.16;65.08;99568.03;5059066;28;20032;-87
2022/03/11 10:52:28;;;;;;;10.02;6.60;;;;;;;9.19;65.59;99566.91;5031687;28;20043;-87
2022/03/11 10:54:54;;;;;;;8.90;6.68;;;;;;;9.28;66.07;99569.59;5049328;28;20477;-87
2022/03/11 10:57:21;;;;;;;10.73;6.95;;;;;;;9.23;66.36;99571.84;5033428;28;20060;-87
2022/03/11 10:59:46;;;;;;;10.02;6.38;;;;;;;9.27;66.06;99575.91;5037638;28;20556;-86
2022/03/11 11:02:12;;;;;;;8.93;6.53;;;;;;;9.21;66.34;99563.13;5023425;28;20033;-87
2022/03/11 11:04:38;;;;;;;8.52;6.50;;;;;;;9.22;67.09;99550.63;5022468;28;20387;-87
2022/03/11 11:07:05;;;;;;;10.02;6.60;;;;;;;9.33;65.05;99551.34;5040411;28;20045;-87
2022/03/11 11:09:31;;;;;;;9.25;6.00;;;;;;;9.38;65.00;99548.25;5029694;28;20602;-87
2022/03/11 11:11:56;;;;;;;7.90;5.85;;;;;;;9.40;65.80;99540.94;5037781;28;20069;-87
2022/03/11 11:14:22;;;;;;;7.65;5.95;;;;;;;9.45;66.30;99538.69;5013779;28;20025;-87
2022/03/11 11:16:49;;;;;;;9.60;6.07;;;;;;;9.51;64.93;99527.47;5028801;28;20482;-87
2022/03/11 11:19:18;;;;;;;7.65;5.78;;;;;;;9.51;65.51;99530.16;5013288;28;20040;-89
2022/03/11 11:21:45;;;;;;;9.80;5.57;;;;;;;9.53;66.25;99530.00;5012956;28;20048;-88
2022/03/11 11:24:31;;;;;;;8.15;5.50;;;;;;;9.51;66.56;99524.81;5013078;28;20107;-89
2022/03/11 11:26:56;;;;;;;7.05;5.25;;;;;;;9.48;67.28;99521.56;5004413;28;20368;-87
2022/03/11 11:29:24;;;;;;;9.73;5.20;;;;;;;9.43;67.14;99513.97;5013102;28;20033;-87
2022/03/11 11:31:50;;;;;;;7.07;5.13;;;;;;;9.46;66.97;99513.72;5028626;28;20039;-87
2022/03/11 11:34:25;;;;;;;6.40;4.85;;;;;;;9.51;67.22;99506.13;5012767;28;20148;-87